VOBG/BLR METAR and TAF weather

Enter ICAO airport designator
Station Type Date Time Source
VOBG METAR 2019/10/23 13:00 UTC NOAA

VOBG 231300Z 25003KT 6000 BKN008 SCT012 FEW025CB 23/21 Q1011 NOSIG


Station Type Date Time Source
VOBG Decoded METAR 2019/10/23 13:00 UTC NOAA

Bangalore / Hindustan, India (VOBG) 12-57N 077-40E
Oct 23, 2019 - 09:00 AM EDT / 2019.10.23 1300 UTC
Wind: from the WSW (250 degrees) at 3 MPH (3 KT):0
Visibility: 3 mile(s):0
Sky conditions: mostly cloudy
Weather: Cumulonimbus clouds observed
Temperature: 73 F (23 C)
Dew Point: 69 F (21 C)
Relative Humidity: 88%
Pressure (altimeter): 29.85 in. Hg (1011 hPa)
ob: VOBG 231300Z 25003KT 6000 BKN008 SCT012 FEW025CB 23/21 Q1011 NOSIG
cycle: 13

Station Type Date Time Source
VOBG TAF 2018/07/15 00:00 UTC NOAA

VOBG 142300Z 1500/1509 27010KT 6000 SCT010 BKN080
TEMPO 1500/1503 5000 BR SCT008 BKN080

Example: see airport list